Time;durP1;ratioP1;P1;durP2;ratioP2;P2;SDS_P1;SDS_P2;PMS_P1;PMS_P2;Temp;Humidity;BMP_temperature;BMP_pressure;BME280_temperature;BME280_humidity;BME280_pressure;Samples;Min_cycle;Max_cycle;Signal;HPM_P1;HPM_P2
2022/04/30 00:00:30;;;;;;;;;;;11.20;98.30;;;;;;5038727;28;19924;-82
2022/04/30 00:03:00;;;;;;;;;;;11.20;98.80;;;;;;5073209;28;19924;-84
2022/04/30 00:05:29;;;;;;;;;;;11.20;99.20;;;;;;5039750;28;19913;-82
2022/04/30 00:07:54;;;;;;;;;;;11.10;99.10;;;;;;5035026;28;19928;-83
2022/04/30 00:10:20;;;;;;;;;;;11.10;99.90;;;;;;5051914;28;20290;-82
2022/04/30 00:12:46;;;;;;;;;;;11.10;99.90;;;;;;5049113;28;19970;-83
2022/04/30 00:15:11;;;;;;;;;;;11.10;99.90;;;;;;5052416;28;19936;-83
2022/04/30 00:17:36;;;;;;;;;;;11.10;99.90;;;;;;5051935;28;19917;-83
2022/04/30 00:20:03;;;;;;;;;;;11.00;99.90;;;;;;5051815;28;20445;-83
2022/04/30 00:22:29;;;;;;;;;;;11.00;99.90;;;;;;5072137;28;19924;-82
2022/04/30 00:24:54;;;;;;;;;;;11.00;99.90;;;;;;5055787;28;20315;-83
2022/04/30 00:27:20;;;;;;;;;;;11.00;99.90;;;;;;5055286;28;20015;-82
2022/04/30 00:29:46;;;;;;;;;;;10.90;99.90;;;;;;5054931;28;20408;-83
2022/04/30 00:32:12;;;;;;;;;;;10.90;99.90;;;;;;5054773;28;19970;-84
2022/04/30 00:34:38;;;;;;;;;;;10.90;99.90;;;;;;5055341;28;20369;-82
2022/04/30 00:37:03;;;;;;;;;;;10.80;99.90;;;;;;5054583;28;19924;-82
2022/04/30 00:39:32;;;;;;;;;;;10.80;99.90;;;;;;5054678;28;20015;-83
2022/04/30 00:41:58;;;;;;;;;;;10.80;99.90;;;;;;5061257;28;19923;-83
2022/04/30 00:44:24;;;;;;;;;;;10.70;99.90;;;;;;5061340;28;19917;-83
2022/04/30 00:46:49;;;;;;;;;;;10.70;99.90;;;;;;5055185;28;19927;-83
2022/04/30 00:49:15;;;;;;;;;;;10.70;99.90;;;;;;5070763;28;19920;-82
2022/04/30 00:51:41;;;;;;;;;;;10.60;99.90;;;;;;5038418;28;19949;-82
2022/04/30 00:54:07;;;;;;;;;;;10.60;99.90;;;;;;5054984;28;19912;-82
2022/04/30 00:56:34;;;;;;;;;;;10.50;99.90;;;;;;5069354;23;19971;-83
2022/04/30 00:59:02;;;;;;;;;;;10.50;99.90;;;;;;5073065;28;19928;-84
2022/04/30 01:01:31;;;;;;;;;;;10.40;99.90;;;;;;5076505;28;19924;-85
2022/04/30 01:03:56;;;;;;;;;;;10.40;99.90;;;;;;5072934;28;19912;-85
2022/04/30 01:06:43;;;;;;;;;;;10.40;99.90;;;;;;5056763;28;19916;-85
2022/04/30 01:09:08;;;;;;;;;;;10.30;99.90;;;;;;5071630;28;19919;-85
2022/04/30 01:11:34;;;;;;;;;;;10.20;99.90;;;;;;5058453;28;20362;-85
2022/04/30 01:14:00;;;;;;;;;;;10.20;99.90;;;;;;5057837;28;19931;-84
2022/04/30 01:16:26;;;;;;;;;;;10.20;99.90;;;;;;5061828;28;19916;-84
2022/04/30 01:18:51;;;;;;;;;;;10.20;99.90;;;;;;5088174;28;19926;-84
2022/04/30 01:21:19;;;;;;;;;;;10.20;99.90;;;;;;5060344;28;19920;-85
2022/04/30 01:23:45;;;;;;;;;;;10.20;99.90;;;;;;5090301;28;19920;-85
2022/04/30 01:26:14;;;;;;;;;;;10.20;99.90;;;;;;5074404;28;19919;-85
2022/04/30 01:28:44;;;;;;;;;;;10.20;99.90;;;;;;5076376;28;19918;-85
2022/04/30 01:37:22;;;;;;;;;;;10.10;99.90;;;;;;5078298;28;19916;-85
2022/04/30 01:39:27;;;;;;;;;;;10.10;99.90;;;;;;5092128;28;19923;-85
2022/04/30 01:41:52;;;;;;;;;;;10.10;99.90;;;;;;5066410;28;19924;-84
2022/04/30 01:44:19;;;;;;;;;;;10.10;99.90;;;;;;5069055;28;20018;-84
2022/04/30 01:46:45;;;;;;;;;;;10.00;99.90;;;;;;5066724;28;20294;-85
2022/04/30 01:49:15;;;;;;;;;;;10.00;99.90;;;;;;5077896;28;19923;-85
2022/04/30 01:51:48;;;;;;;;;;;9.90;99.90;;;;;;5063101;28;19939;-85
2022/04/30 01:54:13;;;;;;;;;;;9.90;99.90;;;;;;5073727;28;19912;-85
2022/04/30 01:56:39;;;;;;;;;;;9.90;99.90;;;;;;5056936;28;20007;-84
2022/04/30 01:59:04;;;;;;;;;;;9.90;99.90;;;;;;5056910;28;20006;-84
2022/04/30 02:01:32;;;;;;;;;;;9.90;99.90;;;;;;5056411;28;19931;-85
2022/04/30 02:03:58;;;;;;;;;;;9.90;99.90;;;;;;5090942;28;19920;-84
2022/04/30 02:06:23;;;;;;;;;;;9.90;99.90;;;;;;5058864;28;19916;-85
2022/04/30 02:08:49;;;;;;;;;;;9.90;99.90;;;;;;5073587;28;19966;-85
2022/04/30 02:11:14;;;;;;;;;;;9.80;99.90;;;;;;5059220;28;19927;-85
2022/04/30 02:13:40;;;;;;;;;;;9.80;99.90;;;;;;5073654;28;19928;-85
2022/04/30 02:16:06;;;;;;;;;;;9.80;99.90;;;;;;5064351;28;20429;-85
2022/04/30 02:18:32;;;;;;;;;;;9.70;99.90;;;;;;5057053;28;19919;-85
2022/04/30 02:20:58;;;;;;;;;;;9.70;99.90;;;;;;5057457;28;19927;-85
2022/04/30 02:23:23;;;;;;;;;;;9.60;99.90;;;;;;5090563;28;19916;-84
2022/04/30 02:25:50;;;;;;;;;;;9.60;99.90;;;;;;5069269;28;19922;-85
2022/04/30 02:28:15;;;;;;;;;;;9.50;99.90;;;;;;5090047;28;19930;-84
2022/04/30 02:30:43;;;;;;;;;;;9.50;99.90;;;;;;5038623;28;19917;-85
2022/04/30 02:33:09;;;;;;;;;;;9.40;99.90;;;;;;5073738;28;19916;-84
2022/04/30 02:35:36;;;;;;;;;;;9.40;99.90;;;;;;5053641;28;20432;-85
2022/04/30 02:38:05;;;;;;;;;;;9.30;99.90;;;;;;5084838;28;19962;-84
2022/04/30 02:40:32;;;;;;;;;;;9.20;99.90;;;;;;5056433;28;19920;-85
2022/04/30 02:43:08;;;;;;;;;;;9.10;99.90;;;;;;5053552;28;19956;-85
2022/04/30 02:45:35;;;;;;;;;;;9.00;99.90;;;;;;5056847;28;20378;-85
2022/04/30 02:48:02;;;;;;;;;;;9.00;99.90;;;;;;5082088;28;19912;-85
2022/04/30 02:50:28;;;;;;;;;;;8.90;99.90;;;;;;5045885;28;20396;-84
2022/04/30 02:52:55;;;;;;;;;;;8.80;99.90;;;;;;5064939;28;20023;-84
2022/04/30 02:55:26;;;;;;;;;;;8.80;99.90;;;;;;5055824;28;19927;-84
2022/04/30 03:00:41;;;;;;;;;;;8.70;99.90;;;;;;5071581;28;20369;-85
2022/04/30 03:03:07;;;;;;;;;;;8.70;99.90;;;;;;5060963;28;19923;-84
2022/04/30 03:05:34;;;;;;;;;;;8.70;99.90;;;;;;5066416;28;19922;-85
2022/04/30 03:08:04;;;;;;;;;;;8.70;99.90;;;;;;5052821;28;19971;-85
2022/04/30 03:10:30;;;;;;;;;;;8.70;99.90;;;;;;5056445;28;19974;-84
2022/04/30 03:12:55;;;;;;;;;;;8.70;99.90;;;;;;5090720;28;20366;-84
2022/04/30 03:15:22;;;;;;;;;;;8.70;99.90;;;;;;5060060;28;20045;-85
2022/04/30 03:23:17;;;;;;;;;;;8.80;99.90;;;;;;5092665;28;19923;-84
2022/04/30 03:25:44;;;;;;;;;;;8.80;99.90;;;;;;5067440;28;19916;-86
2022/04/30 03:28:10;;;;;;;;;;;8.70;99.90;;;;;;5073716;28;20690;-85
2022/04/30 03:30:36;;;;;;;;;;;8.80;99.90;;;;;;5056797;28;19959;-84
2022/04/30 03:33:01;;;;;;;;;;;8.80;99.90;;;;;;5083298;28;19912;-84
2022/04/30 03:35:27;;;;;;;;;;;8.80;99.90;;;;;;5046905;28;19916;-84
2022/04/30 03:37:52;;;;;;;;;;;8.80;99.90;;;;;;5064071;28;19920;-84
2022/04/30 03:40:18;;;;;;;;;;;8.90;99.90;;;;;;5072297;28;19912;-84
2022/04/30 03:42:43;;;;;;;;;;;8.90;99.90;;;;;;5070149;28;19920;-84
2022/04/30 03:45:09;;;;;;;;;;;8.80;99.90;;;;;;5063493;28;20018;-85
2022/04/30 03:47:37;;;;;;;;;;;8.90;99.90;;;;;;5072739;28;19955;-85
2022/04/30 03:50:03;;;;;;;;;;;8.90;99.90;;;;;;5055557;28;19939;-85
2022/04/30 03:52:30;;;;;;;;;;;8.90;99.90;;;;;;5057761;28;20448;-84
2022/04/30 03:54:56;;;;;;;;;;;8.90;99.90;;;;;;5056046;28;19920;-84
2022/04/30 03:57:21;;;;;;;;;;;8.90;99.90;;;;;;5049587;28;19920;-85
2022/04/30 03:59:47;;;;;;;;;;;8.90;99.90;;;;;;5053399;28;20045;-85
2022/04/30 04:02:13;;;;;;;;;;;8.90;99.90;;;;;;5051641;28;19928;-84
2022/04/30 04:04:38;;;;;;;;;;;8.90;99.90;;;;;;5052135;28;19924;-84
2022/04/30 04:07:04;;;;;;;;;;;8.90;99.90;;;;;;5064442;28;20298;-85
2022/04/30 04:09:29;;;;;;;;;;;8.80;99.90;;;;;;5055395;28;20279;-85
2022/04/30 04:11:55;;;;;;;;;;;8.80;99.90;;;;;;5056737;28;19961;-84
2022/04/30 04:19:49;;;;;;;;;;;8.80;99.90;;;;;;5090217;28;19939;-85
2022/04/30 04:22:14;;;;;;;;;;;8.70;99.90;;;;;;5054946;28;19924;-84
2022/04/30 04:27:24;;;;;;;;;;;8.70;99.90;;;;;;5078579;28;19941;-84
2022/04/30 04:29:50;;;;;;;;;;;8.70;99.90;;;;;;5054711;28;19924;-84
2022/04/30 04:32:15;;;;;;;;;;;8.70;99.90;;;;;;5053229;28;19970;-84
2022/04/30 04:34:41;;;;;;;;;;;8.70;99.90;;;;;;5064612;28;19926;-85
2022/04/30 04:37:07;;;;;;;;;;;8.80;99.90;;;;;;5055886;28;19975;-84
2022/04/30 04:39:33;;;;;;;;;;;8.80;99.90;;;;;;5055348;28;20317;-84
2022/04/30 04:41:58;;;;;;;;;;;8.90;99.90;;;;;;5081484;28;19933;-85
2022/04/30 04:44:24;;;;;;;;;;;8.90;99.90;;;;;;5060213;28;20378;-84
2022/04/30 04:46:50;;;;;;;;;;;9.00;99.90;;;;;;5060237;28;19951;-84
2022/04/30 04:49:15;;;;;;;;;;;9.00;99.90;;;;;;5061027;28;19938;-84
2022/04/30 04:51:41;;;;;;;;;;;9.10;99.90;;;;;;5067785;28;19923;-84
2022/04/30 04:54:07;;;;;;;;;;;9.10;99.90;;;;;;5061406;28;19923;-84
2022/04/30 04:56:32;;;;;;;;;;;9.20;99.90;;;;;;5079399;28;19916;-84
2022/04/30 04:59:01;;;;;;;;;;;9.30;99.90;;;;;;5076734;28;19939;-84
2022/04/30 05:01:26;;;;;;;;;;;9.30;99.90;;;;;;5076927;28;19916;-84
2022/04/30 05:03:52;;;;;;;;;;;9.40;99.90;;;;;;5046438;28;19917;-84
2022/04/30 05:06:17;;;;;;;;;;;9.40;99.90;;;;;;5073631;28;20024;-85
2022/04/30 05:08:44;;;;;;;;;;;9.40;99.90;;;;;;5076831;28;19927;-84
2022/04/30 05:11:09;;;;;;;;;;;9.40;99.90;;;;;;5059773;28;19939;-84
2022/04/30 05:13:35;;;;;;;;;;;9.50;99.90;;;;;;5076608;28;19912;-83
2022/04/30 05:16:01;;;;;;;;;;;9.50;99.90;;;;;;5076453;28;19913;-83
2022/04/30 05:18:27;;;;;;;;;;;9.50;99.90;;;;;;5092872;28;19918;-84
2022/04/30 05:20:53;;;;;;;;;;;9.50;99.90;;;;;;5071336;28;19998;-84
2022/04/30 05:23:22;;;;;;;;;;;9.50;99.90;;;;;;5067356;28;19927;-84
2022/04/30 05:25:47;;;;;;;;;;;9.60;99.90;;;;;;5093699;28;19912;-83
2022/04/30 05:28:13;;;;;;;;;;;9.60;99.90;;;;;;5075807;28;20272;-83
2022/04/30 05:30:38;;;;;;;;;;;9.60;99.90;;;;;;5077499;28;20378;-84
2022/04/30 05:33:04;;;;;;;;;;;9.60;99.90;;;;;;5060301;28;19943;-83
2022/04/30 05:35:30;;;;;;;;;;;9.70;99.90;;;;;;5063779;28;20438;-84
2022/04/30 05:37:55;;;;;;;;;;;9.70;99.90;;;;;;5081459;28;20246;-84
2022/04/30 05:40:21;;;;;;;;;;;9.70;99.90;;;;;;5074991;28;19912;-84
2022/04/30 05:42:47;;;;;;;;;;;9.70;99.90;;;;;;5059354;28;19923;-83
2022/04/30 05:45:12;;;;;;;;;;;9.60;99.90;;;;;;5085775;28;19912;-84
2022/04/30 05:47:38;;;;;;;;;;;9.70;99.90;;;;;;5059247;28;20310;-83
2022/04/30 05:50:05;;;;;;;;;;;9.70;99.90;;;;;;5076632;28;19961;-83
2022/04/30 05:52:30;;;;;;;;;;;9.70;99.90;;;;;;5084397;28;19916;-83
2022/04/30 05:54:56;;;;;;;;;;;9.70;99.90;;;;;;5093122;28;19915;-84
2022/04/30 05:57:21;;;;;;;;;;;9.80;99.90;;;;;;5076633;28;19916;-83
2022/04/30 05:59:47;;;;;;;;;;;9.80;99.90;;;;;;5079216;28;19920;-84
2022/04/30 06:02:13;;;;;;;;;;;9.80;99.90;;;;;;5076514;28;19988;-84
2022/04/30 06:04:38;;;;;;;;;;;9.80;99.90;;;;;;5077169;28;20264;-84
2022/04/30 06:07:04;;;;;;;;;;;9.80;99.90;;;;;;5060439;28;19923;-83
2022/04/30 06:09:29;;;;;;;;;;;9.80;99.90;;;;;;5073690;28;19962;-83
2022/04/30 06:11:55;;;;;;;;;;;9.80;99.90;;;;;;5075027;28;19916;-83
2022/04/30 06:14:20;;;;;;;;;;;9.80;99.90;;;;;;5057906;28;20295;-83
2022/04/30 06:16:46;;;;;;;;;;;9.80;99.90;;;;;;5058656;28;19916;-82
2022/04/30 06:19:12;;;;;;;;;;;9.70;99.90;;;;;;5054579;28;20058;-83
2022/04/30 06:21:38;;;;;;;;;;;9.80;99.90;;;;;;5071630;28;20002;-83
2022/04/30 06:24:03;;;;;;;;;;;9.80;99.90;;;;;;5063863;28;19912;-84
2022/04/30 06:26:29;;;;;;;;;;;9.80;99.90;;;;;;5057893;28;19916;-84
2022/04/30 06:28:55;;;;;;;;;;;9.80;99.90;;;;;;5067010;28;19920;-83
2022/04/30 06:31:22;;;;;;;;;;;9.70;99.90;;;;;;5071514;28;19917;-83
2022/04/30 06:33:48;;;;;;;;;;;9.70;99.90;;;;;;5091780;28;19908;-83
2022/04/30 06:36:13;;;;;;;;;;;9.70;99.90;;;;;;5082168;28;20012;-84
2022/04/30 06:38:39;;;;;;;;;;;9.70;99.90;;;;;;5067385;28;20346;-83
2022/04/30 06:41:04;;;;;;;;;;;9.80;99.90;;;;;;5070075;28;19962;-83
2022/04/30 06:43:30;;;;;;;;;;;9.80;99.90;;;;;;5067503;28;19958;-83
2022/04/30 06:45:56;;;;;;;;;;;9.90;99.90;;;;;;5073345;28;19952;-83
2022/04/30 06:48:21;;;;;;;;;;;9.90;99.90;;;;;;5086868;28;19959;-83
2022/04/30 06:50:48;;;;;;;;;;;10.00;99.90;;;;;;5053237;28;20353;-83
2022/04/30 06:58:44;;;;;;;;;;;10.10;99.90;;;;;;5087686;23;19986;-86
2022/04/30 07:04:01;;;;;;;;;;;10.10;99.90;;;;;;5090723;28;19916;-85
2022/04/30 07:06:30;;;;;;;;;;;10.10;99.90;;;;;;5056325;28;19923;-84
2022/04/30 07:08:56;;;;;;;;;;;10.10;99.90;;;;;;5109526;28;20035;-85
2022/04/30 07:11:22;;;;;;;;;;;10.20;99.90;;;;;;5092866;28;19922;-86
2022/04/30 07:13:47;;;;;;;;;;;10.20;99.90;;;;;;5092832;27;20364;-86
2022/04/30 07:16:13;;;;;;;;;;;10.20;99.90;;;;;;5092767;28;19915;-85
2022/04/30 07:18:38;;;;;;;;;;;10.30;99.90;;;;;;5091279;27;19930;-85
2022/04/30 07:21:04;;;;;;;;;;;10.30;99.90;;;;;;5113119;28;19939;-86
2022/04/30 07:23:30;;;;;;;;;;;10.30;99.90;;;;;;5110551;28;19926;-86
2022/04/30 07:25:55;;;;;;;;;;;10.30;99.90;;;;;;5109409;28;20368;-86
2022/04/30 07:28:23;;;;;;;;;;;10.30;99.90;;;;;;5110316;28;19919;-85
2022/04/30 07:30:49;;;;;;;;;;;10.30;99.90;;;;;;5069960;28;20392;-87
2022/04/30 07:33:14;;;;;;;;;;;10.20;99.90;;;;;;5092934;28;19912;-86
2022/04/30 07:35:40;;;;;;;;;;;10.20;99.90;;;;;;5092548;28;19919;-86
2022/04/30 07:38:05;;;;;;;;;;;10.20;99.90;;;;;;5092754;28;19916;-85
2022/04/30 07:40:31;;;;;;;;;;;10.30;99.90;;;;;;5055774;28;19964;-86
2022/04/30 07:42:57;;;;;;;;;;;10.30;99.90;;;;;;5084502;28;19920;-86
2022/04/30 07:45:23;;;;;;;;;;;10.40;99.90;;;;;;5092555;28;19912;-85
2022/04/30 07:47:48;;;;;;;;;;;10.40;99.90;;;;;;5092842;28;20070;-86
2022/04/30 07:50:16;;;;;;;;;;;10.40;99.90;;;;;;5075333;28;20664;-85
2022/04/30 07:52:41;;;;;;;;;;;10.40;99.90;;;;;;5093000;28;19951;-86
2022/04/30 07:55:07;;;;;;;;;;;10.30;99.90;;;;;;5092869;28;20020;-86
2022/04/30 07:57:32;;;;;;;;;;;10.30;99.90;;;;;;5110610;28;20045;-87
2022/04/30 07:59:58;;;;;;;;;;;10.30;99.90;;;;;;5092234;28;20363;-85
2022/04/30 08:02:24;;;;;;;;;;;10.20;99.90;;;;;;5111585;28;20012;-86
2022/04/30 08:04:49;;;;;;;;;;;10.20;99.90;;;;;;5089226;28;19926;-86
2022/04/30 08:07:15;;;;;;;;;;;10.20;99.90;;;;;;5093174;28;20368;-85
2022/04/30 08:09:40;;;;;;;;;;;10.20;99.90;;;;;;5078865;28;19915;-84
2022/04/30 08:12:06;;;;;;;;;;;10.20;99.90;;;;;;5095410;28;19912;-84
2022/04/30 08:14:31;;;;;;;;;;;10.30;99.90;;;;;;5098453;28;20273;-84
2022/04/30 08:16:57;;;;;;;;;;;10.30;99.90;;;;;;5084139;28;19912;-84
2022/04/30 08:19:23;;;;;;;;;;;10.30;99.90;;;;;;5104622;28;19912;-85
2022/04/30 08:21:48;;;;;;;;;;;10.20;99.90;;;;;;5096075;28;19919;-84
2022/04/30 08:24:14;;;;;;;;;;;10.10;99.90;;;;;;5096291;28;20030;-84
2022/04/30 08:26:40;;;;;;;;;;;10.10;99.90;;;;;;5078760;28;19923;-84
2022/04/30 08:29:06;;;;;;;;;;;10.00;99.90;;;;;;5114489;28;19950;-84
2022/04/30 08:31:32;;;;;;;;;;;10.00;99.90;;;;;;5096579;28;19912;-84
2022/04/30 08:33:57;;;;;;;;;;;10.10;99.90;;;;;;5095659;28;20399;-84
2022/04/30 08:36:23;;;;;;;;;;;10.20;99.90;;;;;;5096314;28;19927;-85
2022/04/30 08:38:48;;;;;;;;;;;10.50;99.90;;;;;;5095237;28;20382;-84
2022/04/30 08:41:14;;;;;;;;;;;10.70;99.90;;;;;;5078892;28;19927;-84
2022/04/30 08:43:40;;;;;;;;;;;10.90;99.90;;;;;;5095994;28;19912;-84
2022/04/30 08:46:06;;;;;;;;;;;11.20;99.90;;;;;;5096067;28;20322;-85
2022/04/30 08:48:31;;;;;;;;;;;11.50;99.90;;;;;;5095052;28;20041;-86
2022/04/30 08:50:57;;;;;;;;;;;11.70;99.90;;;;;;5114670;28;19934;-85
2022/04/30 08:53:22;;;;;;;;;;;11.70;99.90;;;;;;5086884;28;19924;-84
2022/04/30 08:55:48;;;;;;;;;;;11.70;99.90;;;;;;5078918;28;19920;-84
2022/04/30 08:58:15;;;;;;;;;;;11.60;99.90;;;;;;5095246;28;20379;-88
2022/04/30 09:00:41;;;;;;;;;;;11.50;99.90;;;;;;5067561;28;19924;-85
2022/04/30 09:03:07;;;;;;;;;;;11.50;99.90;;;;;;5078081;28;19922;-84
2022/04/30 09:05:37;;;;;;;;;;;11.50;99.90;;;;;;5078421;28;19916;-84
2022/04/30 09:08:04;;;;;;;;;;;11.60;99.90;;;;;;5078645;28;19930;-85
2022/04/30 09:10:30;;;;;;;;;;;11.70;99.90;;;;;;5114973;28;20006;-84
2022/04/30 09:13:06;;;;;;;;;;;11.70;99.90;;;;;;5096822;28;19912;-84
2022/04/30 09:15:31;;;;;;;;;;;11.80;99.90;;;;;;5097090;28;19916;-84
2022/04/30 09:17:58;;;;;;;;;;;11.90;99.90;;;;;;5096403;28;19912;-85
2022/04/30 09:20:23;;;;;;;;;;;11.90;99.90;;;;;;5096414;28;19955;-85
2022/04/30 09:22:49;;;;;;;;;;;11.90;99.60;;;;;;5096817;28;19950;-85
2022/04/30 09:25:17;;;;;;;;;;;11.90;99.30;;;;;;5079295;28;19912;-86
2022/04/30 09:27:46;;;;;;;;;;;12.00;99.00;;;;;;5115561;28;19908;-84
2022/04/30 09:30:15;;;;;;;;;;;12.10;99.40;;;;;;5079314;28;20463;-84
2022/04/30 09:32:41;;;;;;;;;;;12.20;99.20;;;;;;5068074;28;19941;-84
2022/04/30 09:38:02;;;;;;;;;;;12.30;97.90;;;;;;5074948;28;19935;-86
2022/04/30 09:40:28;;;;;;;;;;;12.20;98.80;;;;;;5095629;28;19912;-84
2022/04/30 09:42:53;;;;;;;;;;;12.10;99.20;;;;;;5096308;28;20380;-85
2022/04/30 09:45:22;;;;;;;;;;;12.10;97.70;;;;;;5097152;28;19946;-84
2022/04/30 09:47:47;;;;;;;;;;;12.10;99.80;;;;;;5097231;28;20296;-85
2022/04/30 09:55:45;;;;;;;;;;;12.40;98.60;;;;;;5117318;28;19922;-85
2022/04/30 09:58:15;;;;;;;;;;;12.70;99.60;;;;;;5097537;28;19927;-84
2022/04/30 10:00:41;;;;;;;;;;;12.80;94.00;;;;;;5097532;28;19912;-85
2022/04/30 10:03:08;;;;;;;;;;;13.00;93.80;;;;;;5097662;28;19923;-85
2022/04/30 10:05:36;;;;;;;;;;;13.30;94.20;;;;;;5116340;28;19919;-89
2022/04/30 10:08:02;;;;;;;;;;;13.40;92.00;;;;;;5101047;28;20029;-88
2022/04/30 10:10:41;;;;;;;;;;;13.50;91.00;;;;;;5107310;28;19912;-88
2022/04/30 10:13:16;;;;;;;;;;;13.20;89.20;;;;;;5107430;28;19933;-85
2022/04/30 10:15:46;;;;;;;;;;;13.00;90.50;;;;;;5108094;28;19915;-87
2022/04/30 10:18:13;;;;;;;;;;;12.80;91.70;;;;;;5125631;28;19908;-87
2022/04/30 10:20:38;;;;;;;;;;;12.90;92.40;;;;;;5123845;28;19911;-86
2022/04/30 10:23:04;;;;;;;;;;;12.90;92.30;;;;;;5108145;28;19924;-87
2022/04/30 10:25:32;;;;;;;;;;;12.90;91.40;;;;;;5107310;28;19926;-90
2022/04/30 10:27:57;;;;;;;;;;;13.00;92.40;;;;;;5107778;28;19971;-87
2022/04/30 10:30:29;;;;;;;;;;;13.10;91.50;;;;;;5106438;28;20297;-86
2022/04/30 10:32:56;;;;;;;;;;;13.40;92.60;;;;;;5105675;28;20391;-86
2022/04/30 10:35:29;;;;;;;;;;;13.70;89.10;;;;;;5091924;28;20431;-86
2022/04/30 10:38:04;;;;;;;;;;;13.80;86.90;;;;;;5084596;28;19912;-87
2022/04/30 10:40:36;;;;;;;;;;;13.80;87.10;;;;;;5092423;28;19926;-85
2022/04/30 10:43:13;;;;;;;;;;;14.10;84.60;;;;;;5104933;28;20402;-85
2022/04/30 10:45:38;;;;;;;;;;;14.10;82.80;;;;;;5100472;28;19915;-88
2022/04/30 10:48:04;;;;;;;;;;;14.00;79.50;;;;;;5105484;28;19912;-86
2022/04/30 10:50:30;;;;;;;;;;;13.90;77.40;;;;;;5093547;28;19937;-85
2022/04/30 10:52:55;;;;;;;;;;;13.80;78.50;;;;;;5121980;27;19908;-85
2022/04/30 10:55:22;;;;;;;;;;;13.70;79.70;;;;;;5124532;27;19911;-85
2022/04/30 10:57:48;;;;;;;;;;;13.80;80.00;;;;;;5114398;28;19919;-87
2022/04/30 11:00:14;;;;;;;;;;;13.80;80.70;;;;;;5104059;28;19911;-85
2022/04/30 11:02:40;;;;;;;;;;;13.80;80.60;;;;;;5104785;28;19915;-87
2022/04/30 11:05:16;;;;;;;;;;;13.80;77.70;;;;;;5106695;28;20349;-88
2022/04/30 11:07:42;;;;;;;;;;;13.80;80.00;;;;;;5125226;27;20002;-87
2022/04/30 11:10:08;;;;;;;;;;;13.80;76.10;;;;;;5123632;28;19915;-87
2022/04/30 11:12:33;;;;;;;;;;;13.80;79.50;;;;;;5107591;28;20004;-88
2022/04/30 11:14:59;;;;;;;;;;;13.60;82.30;;;;;;5089539;28;19958;-89
2022/04/30 11:17:25;;;;;;;;;;;13.30;86.30;;;;;;5129755;27;19914;-86
2022/04/30 11:19:51;;;;;;;;;;;13.10;85.70;;;;;;5108982;28;19919;-87
2022/04/30 11:22:17;;;;;;;;;;;13.00;86.60;;;;;;5109525;28;19963;-87
2022/04/30 11:24:43;;;;;;;;;;;12.80;87.20;;;;;;5127770;28;19928;-87
2022/04/30 11:27:09;;;;;;;;;;;12.60;89.20;;;;;;5125662;28;19977;-87
2022/04/30 11:29:35;;;;;;;;;;;12.40;90.70;;;;;;5107456;28;19908;-87
2022/04/30 11:32:01;;;;;;;;;;;12.20;91.80;;;;;;5129098;28;19908;-87
2022/04/30 11:34:27;;;;;;;;;;;12.10;93.70;;;;;;5107458;28;19933;-85
2022/04/30 11:36:53;;;;;;;;;;;12.10;94.20;;;;;;5103914;28;19916;-88
2022/04/30 11:39:20;;;;;;;;;;;12.10;94.70;;;;;;5113266;28;19911;-88
2022/04/30 11:41:48;;;;;;;;;;;12.10;94.80;;;;;;5111254;28;19943;-86
2022/04/30 11:44:14;;;;;;;;;;;12.20;96.00;;;;;;5103931;28;19912;-86
2022/04/30 11:46:41;;;;;;;;;;;12.40;95.70;;;;;;5123317;28;19939;-84
2022/04/30 11:49:11;;;;;;;;;;;12.50;93.60;;;;;;5109130;27;19928;-85
2022/04/30 11:51:37;;;;;;;;;;;12.50;92.50;;;;;;5115833;28;19912;-86
2022/04/30 11:54:03;;;;;;;;;;;12.40;92.80;;;;;;5110786;27;20218;-86
2022/04/30 11:56:30;;;;;;;;;;;12.40;92.70;;;;;;5115008;28;19912;-86
2022/04/30 11:58:56;;;;;;;;;;;12.20;93.40;;;;;;5108457;27;19920;-85
2022/04/30 12:01:21;;;;;;;;;;;12.20;93.70;;;;;;5100148;28;19916;-87
2022/04/30 12:03:52;;;;;;;;;;;12.30;93.70;;;;;;5122444;28;20356;-85
2022/04/30 12:06:18;;;;;;;;;;;12.40;93.70;;;;;;5107985;27;20019;-84
2022/04/30 12:08:44;;;;;;;;;;;12.40;94.80;;;;;;5120109;27;19915;-84
2022/04/30 12:11:09;;;;;;;;;;;12.50;94.40;;;;;;5123162;27;20360;-84
2022/04/30 12:13:35;;;;;;;;;;;12.50;93.00;;;;;;5074042;28;19920;-84
2022/04/30 12:16:04;;;;;;;;;;;12.50;92.70;;;;;;5073489;27;19931;-86
2022/04/30 12:26:52;;;;;;;;;;;12.50;92.50;;;;;;5095386;28;22302;-84
2022/04/30 12:29:19;;;;;;;;;;;12.70;93.50;;;;;;5093364;28;19991;-85
2022/04/30 12:31:45;;;;;;;;;;;12.70;92.50;;;;;;5109772;28;20428;-84
2022/04/30 12:34:16;;;;;;;;;;;12.70;91.30;;;;;;5117433;27;19971;-84
2022/04/30 12:36:49;;;;;;;;;;;12.40;90.80;;;;;;5099201;28;19940;-84
2022/04/30 12:39:16;;;;;;;;;;;12.30;91.30;;;;;;5095192;28;20359;-84
2022/04/30 12:41:41;;;;;;;;;;;12.20;92.00;;;;;;5081925;28;19920;-86
2022/04/30 12:44:07;;;;;;;;;;;12.20;93.20;;;;;;5097643;28;19912;-84
2022/04/30 12:46:32;;;;;;;;;;;12.10;92.40;;;;;;5099966;28;19930;-84
2022/04/30 12:48:58;;;;;;;;;;;12.00;92.60;;;;;;5086948;28;19916;-86
2022/04/30 12:51:23;;;;;;;;;;;11.90;93.40;;;;;;5127227;28;19915;-87
2022/04/30 12:53:49;;;;;;;;;;;12.00;93.60;;;;;;5108666;28;19979;-86
2022/04/30 12:56:16;;;;;;;;;;;12.20;93.10;;;;;;5111897;28;19911;-86
2022/04/30 12:58:43;;;;;;;;;;;12.20;94.10;;;;;;5078942;23;20003;-82
2022/04/30 13:01:08;;;;;;;;;;;12.30;93.20;;;;;;5031849;28;20128;-82
2022/04/30 13:03:34;;;;;;;;;;;12.40;93.10;;;;;;5014809;28;20026;-81
2022/04/30 13:06:01;;;;;;;;;;;12.30;90.40;;;;;;5036799;28;19913;-81
2022/04/30 13:13:30;;;;;;;;;;;12.30;90.50;;;;;;5025776;28;19924;-81
2022/04/30 13:13:56;;;;;;;;;;;12.30;90.60;;;;;;5071046;28;20292;-82
2022/04/30 13:16:21;;;;;;;;;;;12.30;91.60;;;;;;5042089;28;19960;-82
2022/04/30 13:18:47;;;;;;;;;;;12.30;91.10;;;;;;5018121;28;19920;-83
2022/04/30 13:21:13;;;;;;;;;;;12.30;91.00;;;;;;5018008;28;19917;-81
2022/04/30 13:23:39;;;;;;;;;;;12.40;91.80;;;;;;5027490;28;20283;-80
2022/04/30 13:26:05;;;;;;;;;;;12.40;90.30;;;;;;5016424;28;19971;-83
2022/04/30 13:28:31;;;;;;;;;;;12.40;90.60;;;;;;5031777;28;19921;-81
2022/04/30 13:30:56;;;;;;;;;;;12.50;89.70;;;;;;5034505;28;19955;-86
2022/04/30 13:33:22;;;;;;;;;;;12.50;90.90;;;;;;5037242;28;19921;-86
2022/04/30 13:35:48;;;;;;;;;;;12.40;89.20;;;;;;5020191;28;19941;-85
2022/04/30 13:38:14;;;;;;;;;;;12.30;89.90;;;;;;5053798;28;19922;-82
2022/04/30 13:40:40;;;;;;;;;;;12.20;90.70;;;;;;5072131;28;19908;-81
2022/04/30 13:43:06;;;;;;;;;;;12.10;90.90;;;;;;5071989;28;20383;-82
2022/04/30 13:45:32;;;;;;;;;;;11.80;91.00;;;;;;5025761;28;19916;-82
2022/04/30 13:47:58;;;;;;;;;;;11.70;92.20;;;;;;5034062;28;19920;-84
2022/04/30 13:50:23;;;;;;;;;;;11.70;92.80;;;;;;5033342;28;19959;-82
2022/04/30 13:52:49;;;;;;;;;;;11.80;93.20;;;;;;5055556;28;19916;-82
2022/04/30 13:55:14;;;;;;;;;;;11.90;94.40;;;;;;5051410;28;20396;-85
2022/04/30 13:57:40;;;;;;;;;;;12.00;94.70;;;;;;5013923;28;19921;-85
2022/04/30 14:00:07;;;;;;;;;;;12.00;93.10;;;;;;5051339;28;19957;-85
2022/04/30 14:02:32;;;;;;;;;;;12.10;92.30;;;;;;5053502;28;20288;-84
2022/04/30 14:04:58;;;;;;;;;;;12.10;91.20;;;;;;5053534;28;19916;-82
2022/04/30 14:07:23;;;;;;;;;;;12.20;90.70;;;;;;5053033;28;19936;-83
2022/04/30 14:09:49;;;;;;;;;;;12.20;90.70;;;;;;5070632;28;19957;-82
2022/04/30 14:12:17;;;;;;;;;;;12.20;89.00;;;;;;5051733;28;19920;-83
2022/04/30 14:14:58;;;;;;;;;;;12.20;89.50;;;;;;5053349;28;20373;-82
2022/04/30 14:20:12;;;;;;;;;;;12.60;90.40;;;;;;5066337;28;19931;-83
2022/04/30 14:22:38;;;;;;;;;;;12.70;89.00;;;;;;5069271;28;19904;-82
2022/04/30 14:25:07;;;;;;;;;;;12.70;87.40;;;;;;5065712;28;19970;-84
2022/04/30 14:27:34;;;;;;;;;;;12.60;88.70;;;;;;5078995;28;19962;-83
2022/04/30 14:30:00;;;;;;;;;;;12.50;86.90;;;;;;5060709;28;19913;-84
2022/04/30 14:32:25;;;;;;;;;;;12.40;87.10;;;;;;5059419;28;19917;-84
2022/04/30 14:34:51;;;;;;;;;;;12.50;88.70;;;;;;5040018;28;19928;-83
2022/04/30 14:37:16;;;;;;;;;;;12.60;87.20;;;;;;5039199;28;19916;-84
2022/04/30 14:39:42;;;;;;;;;;;12.60;84.70;;;;;;5058047;28;19927;-83
2022/04/30 14:42:09;;;;;;;;;;;12.50;85.10;;;;;;5058099;28;19979;-83
2022/04/30 14:44:35;;;;;;;;;;;12.50;87.20;;;;;;5057855;28;19923;-83
2022/04/30 14:47:02;;;;;;;;;;;12.50;87.70;;;;;;5055734;28;20366;-83
2022/04/30 14:49:28;;;;;;;;;;;12.60;87.80;;;;;;5057185;28;19916;-83
2022/04/30 14:51:53;;;;;;;;;;;12.70;85.90;;;;;;5037638;28;19939;-84
2022/04/30 14:54:19;;;;;;;;;;;12.80;84.00;;;;;;5053307;28;19963;-83
2022/04/30 14:56:46;;;;;;;;;;;12.80;83.40;;;;;;5038518;28;19927;-84
2022/04/30 14:59:12;;;;;;;;;;;12.60;82.80;;;;;;5054440;28;20410;-84
2022/04/30 15:01:37;;;;;;;;;;;12.30;85.00;;;;;;5040412;28;19987;-83
2022/04/30 15:04:03;;;;;;;;;;;12.20;88.50;;;;;;5052231;28;19921;-83
2022/04/30 15:06:28;;;;;;;;;;;12.20;88.10;;;;;;5035468;28;20062;-84
2022/04/30 15:08:56;;;;;;;;;;;12.20;89.00;;;;;;5031588;28;19928;-83